Time;durP1;ratioP1;P1;durP2;ratioP2;P2;SDS_P1;SDS_P2;PMS_P1;PMS_P2;Temp;Humidity;BMP_temperature;BMP_pressure;BME280_temperature;BME280_humidity;BME280_pressure;Samples;Min_cycle;Max_cycle;Signal;HPM_P1;HPM_P2
2022/01/08 00:00:28;;;;;;;20.45;8.60;;;2.60;99.90;;;;;;5046333;28;20098;-53
2022/01/08 00:02:54;;;;;;;14.80;7.22;;;2.50;99.90;;;;;;5048615;28;20478;-51
2022/01/08 00:05:20;;;;;;;15.60;7.78;;;2.50;99.90;;;;;;5046450;28;20234;-47
2022/01/08 00:07:46;;;;;;;18.63;7.47;;;2.50;99.90;;;;;;5048527;28;20082;-50
2022/01/08 00:10:12;;;;;;;20.08;8.35;;;2.60;99.90;;;;;;5050856;28;20170;-48
2022/01/08 00:12:38;;;;;;;20.55;8.80;;;2.60;99.90;;;;;;5052864;28;20112;-49
2022/01/08 00:15:06;;;;;;;17.60;8.73;;;2.60;99.90;;;;;;5043909;28;20592;-48
2022/01/08 00:17:32;;;;;;;14.90;7.88;;;2.70;99.90;;;;;;5052257;28;20025;-48
2022/01/08 00:19:57;;;;;;;16.83;8.93;;;2.60;99.90;;;;;;5050824;28;20040;-52
2022/01/08 00:22:23;;;;;;;18.73;8.82;;;2.60;99.90;;;;;;5053015;28;20025;-53
2022/01/08 00:24:52;;;;;;;15.35;8.48;;;2.70;99.90;;;;;;5052271;28;20053;-50
2022/01/08 00:27:19;;;;;;;21.75;7.93;;;2.60;99.90;;;;;;5053681;28;20111;-53
2022/01/08 00:29:44;;;;;;;19.67;7.90;;;2.70;99.90;;;;;;5051051;28;20075;-50
2022/01/08 00:32:10;;;;;;;18.45;8.73;;;2.70;99.90;;;;;;5052509;28;20159;-48
2022/01/08 00:34:36;;;;;;;14.30;8.32;;;2.70;99.90;;;;;;5052096;28;20059;-50
2022/01/08 00:37:02;;;;;;;18.23;8.85;;;2.70;99.90;;;;;;5051372;28;20080;-50
2022/01/08 00:39:27;;;;;;;16.33;9.40;;;2.70;99.90;;;;;;5051116;28;20048;-50
2022/01/08 00:41:53;;;;;;;17.55;10.23;;;2.70;99.90;;;;;;5052469;28;20387;-50
2022/01/08 00:44:19;;;;;;;24.80;10.05;;;2.60;99.90;;;;;;5052138;28;20021;-52
2022/01/08 00:46:44;;;;;;;17.83;10.18;;;2.60;99.90;;;;;;5050836;28;20087;-55
2022/01/08 00:49:10;;;;;;;17.95;10.52;;;2.60;99.90;;;;;;5052236;28;20029;-53
2022/01/08 00:51:35;;;;;;;27.13;11.10;;;2.60;99.90;;;;;;5049166;28;20437;-51
2022/01/08 00:54:01;;;;;;;24.70;11.20;;;2.60;99.90;;;;;;5051788;28;20037;-49
2022/01/08 00:56:27;;;;;;;15.77;9.65;;;2.70;99.90;;;;;;5050997;28;20074;-54
2022/01/08 00:58:52;;;;;;;22.48;10.13;;;2.70;99.90;;;;;;5051866;28;20025;-51
2022/01/08 01:01:18;;;;;;;18.48;10.20;;;2.70;99.90;;;;;;5050285;28;20028;-51
2022/01/08 01:03:43;;;;;;;17.42;9.82;;;2.70;99.90;;;;;;5051624;28;20060;-52
2022/01/08 01:06:09;;;;;;;18.55;10.40;;;2.70;99.90;;;;;;5050572;28;20048;-52
2022/01/08 01:08:35;;;;;;;20.75;10.80;;;2.60;99.90;;;;;;5051504;28;20025;-52
2022/01/08 01:11:01;;;;;;;21.17;11.32;;;2.60;99.90;;;;;;5045148;28;20057;-53
2022/01/08 01:13:26;;;;;;;21.30;12.50;;;2.60;99.90;;;;;;5031834;28;20026;-53
2022/01/08 01:15:52;;;;;;;22.90;10.88;;;2.60;99.90;;;;;;5047087;28;20037;-52
2022/01/08 01:18:18;;;;;;;23.80;11.73;;;2.60;99.90;;;;;;5051460;28;20153;-52
2022/01/08 01:20:44;;;;;;;21.50;10.85;;;2.60;99.90;;;;;;5049731;28;20033;-52
2022/01/08 01:23:18;;;;;;;27.42;12.15;;;2.50;99.90;;;;;;5051557;28;20032;-56
2022/01/08 01:25:51;;;;;;;27.30;13.00;;;2.50;99.90;;;;;;5049668;28;20043;-53
2022/01/08 01:41:51;;;;;;;29.83;13.85;;;2.50;99.90;;;;;;5012166;28;20068;-52
2022/01/08 01:47:02;;;;;;;20.98;13.02;;;2.60;99.90;;;;;;5051546;28;20041;-49
2022/01/08 01:49:30;;;;;;;27.52;14.57;;;2.60;99.90;;;;;;5046301;28;20033;-53
2022/01/08 01:51:56;;;;;;;27.83;13.27;;;2.50;99.90;;;;;;5050855;28;20075;-53
2022/01/08 01:54:22;;;;;;;27.52;13.75;;;2.50;99.90;;;;;;5048837;28;20063;-49
2022/01/08 01:56:48;;;;;;;25.85;13.02;;;2.50;99.90;;;;;;5051127;28;20068;-50
2022/01/08 01:59:14;;;;;;;26.35;13.35;;;2.60;99.90;;;;;;5048818;28;20051;-52
2022/01/08 02:01:39;;;;;;;24.83;13.50;;;2.50;99.90;;;;;;5049108;28;20105;-49
2022/01/08 02:04:05;;;;;;;27.35;13.75;;;2.50;99.90;;;;;;5050765;28;20418;-49
2022/01/08 02:06:31;;;;;;;31.52;14.02;;;2.50;99.90;;;;;;5049995;28;20458;-49
2022/01/08 02:08:56;;;;;;;23.35;13.95;;;2.50;99.90;;;;;;5049772;28;20048;-49
2022/01/08 02:11:22;;;;;;;27.17;13.90;;;2.50;99.90;;;;;;5049933;28;20032;-49
2022/01/08 02:13:48;;;;;;;25.25;13.90;;;2.60;99.90;;;;;;5049929;28;20032;-50
2022/01/08 02:16:17;;;;;;;24.92;13.52;;;2.50;99.90;;;;;;5049298;28;20496;-49
2022/01/08 02:18:50;;;;;;;22.23;13.88;;;2.50;99.90;;;;;;5049576;28;20118;-52
2022/01/08 02:21:16;;;;;;;24.40;13.40;;;2.40;99.90;;;;;;5048495;28;20037;-49
2022/01/08 02:23:42;;;;;;;26.23;14.15;;;2.50;99.90;;;;;;5050148;28;20150;-52
2022/01/08 02:26:10;;;;;;;24.90;14.48;;;2.50;99.90;;;;;;5041512;28;20119;-53
2022/01/08 02:28:37;;;;;;;26.65;14.35;;;2.50;99.90;;;;;;5050111;28;20112;-53
2022/01/08 02:31:03;;;;;;;25.77;14.68;;;2.50;99.90;;;;;;5049402;28;20036;-53
2022/01/08 02:33:29;;;;;;;26.08;14.15;;;2.40;99.90;;;;;;5050199;28;20107;-50
2022/01/08 02:35:55;;;;;;;25.50;14.43;;;2.50;99.90;;;;;;5048955;28;20079;-52
2022/01/08 02:38:21;;;;;;;26.25;14.38;;;2.50;99.90;;;;;;5049069;28;20029;-49
2022/01/08 02:40:55;;;;;;;29.20;14.60;;;2.50;99.90;;;;;;5045357;28;20033;-50
2022/01/08 02:43:23;;;;;;;27.05;14.15;;;2.40;99.90;;;;;;5049262;28;20378;-51
2022/01/08 02:45:49;;;;;;;24.75;15.07;;;2.40;99.90;;;;;;5046323;28;20467;-51
2022/01/08 02:48:14;;;;;;;28.67;15.40;;;2.50;99.90;;;;;;5049176;28;20148;-53
2022/01/08 02:50:40;;;;;;;26.23;13.85;;;2.50;99.90;;;;;;5048868;28;20095;-51
2022/01/08 02:53:06;;;;;;;28.90;15.07;;;2.50;99.90;;;;;;5050009;28;20052;-49
2022/01/08 02:55:31;;;;;;;26.30;14.23;;;2.50;99.90;;;;;;5049071;28;20059;-50
2022/01/08 02:57:57;;;;;;;27.08;14.80;;;2.50;99.90;;;;;;5048137;28;20029;-50
2022/01/08 03:00:23;;;;;;;22.92;13.77;;;2.40;99.90;;;;;;5047479;28;20363;-53
2022/01/08 03:02:50;;;;;;;23.85;14.65;;;2.50;99.90;;;;;;5048754;28;20386;-51
2022/01/08 03:05:16;;;;;;;26.40;15.52;;;2.50;99.90;;;;;;5049366;28;20016;-53
2022/01/08 03:07:44;;;;;;;24.73;15.05;;;2.50;99.90;;;;;;5048534;28;20028;-50
2022/01/08 03:10:12;;;;;;;29.48;15.35;;;2.40;99.90;;;;;;5047893;28;20103;-51
2022/01/08 03:12:41;;;;;;;25.35;14.68;;;2.50;99.90;;;;;;5048916;28;20481;-49
2022/01/08 03:15:12;;;;;;;28.10;14.63;;;2.50;99.90;;;;;;5049740;28;20063;-49
2022/01/08 03:17:38;;;;;;;25.35;15.18;;;2.50;99.90;;;;;;5048675;28;20033;-51
2022/01/08 03:20:07;;;;;;;23.90;14.52;;;2.40;99.90;;;;;;5048035;28;20029;-55
2022/01/08 03:22:33;;;;;;;25.58;14.75;;;2.40;99.90;;;;;;5048438;28;20121;-53
2022/01/08 03:25:00;;;;;;;29.10;15.10;;;2.40;99.90;;;;;;5048130;28;20040;-53
2022/01/08 03:27:26;;;;;;;28.35;14.35;;;2.40;99.90;;;;;;5041419;28;20060;-53
2022/01/08 03:29:52;;;;;;;30.65;16.25;;;2.40;99.90;;;;;;5048077;28;20154;-53
2022/01/08 03:32:18;;;;;;;27.42;15.05;;;2.40;99.90;;;;;;5049759;28;20116;-54
2022/01/08 03:34:43;;;;;;;23.25;13.63;;;2.50;99.90;;;;;;5048650;28;20033;-54
2022/01/08 03:37:09;;;;;;;24.02;14.73;;;2.40;99.90;;;;;;5048358;28;20486;-50
2022/01/08 03:39:35;;;;;;;27.15;14.75;;;2.40;99.90;;;;;;5048247;28;20056;-53
2022/01/08 03:42:01;;;;;;;24.42;14.73;;;2.40;99.90;;;;;;5049727;28;20156;-53
2022/01/08 03:44:26;;;;;;;27.20;15.48;;;2.40;99.90;;;;;;5042370;28;20021;-54
2022/01/08 03:46:52;;;;;;;30.17;16.17;;;2.40;99.90;;;;;;5049788;28;20033;-51
2022/01/08 03:49:25;;;;;;;28.25;15.27;;;2.40;99.90;;;;;;5047322;28;20043;-52
2022/01/08 03:51:55;;;;;;;26.35;15.52;;;2.40;99.90;;;;;;5049971;28;20041;-49
2022/01/08 03:54:22;;;;;;;30.08;14.82;;;2.40;99.90;;;;;;5048216;28;20033;-50
2022/01/08 03:56:48;;;;;;;37.08;15.15;;;2.40;99.90;;;;;;5047910;28;20025;-55
2022/01/08 03:59:15;;;;;;;27.92;14.18;;;2.40;99.90;;;;;;5047923;28;20029;-53
2022/01/08 04:01:40;;;;;;;29.27;14.73;;;2.40;99.90;;;;;;5049320;28;20033;-55
2022/01/08 04:04:06;;;;;;;27.90;15.15;;;2.40;99.90;;;;;;5046476;28;20107;-51
2022/01/08 04:06:32;;;;;;;30.73;14.55;;;2.40;99.90;;;;;;5049127;28;20021;-51
2022/01/08 04:08:58;;;;;;;28.30;14.73;;;2.40;99.90;;;;;;5048236;28;20036;-53
2022/01/08 04:11:25;;;;;;;30.98;15.77;;;2.40;99.90;;;;;;5048304;28;20039;-52
2022/01/08 04:13:51;;;;;;;24.55;14.23;;;2.40;99.90;;;;;;5048226;28;20040;-50
2022/01/08 04:16:22;;;;;;;31.88;14.05;;;2.40;99.90;;;;;;5048716;28;20483;-49
2022/01/08 04:18:48;;;;;;;29.73;14.82;;;2.40;99.90;;;;;;5048209;28;20029;-47
2022/01/08 04:24:08;;;;;;;30.15;15.52;;;2.50;99.90;;;;;;5024100;28;20440;-50
2022/01/08 04:26:34;;;;;;;34.45;16.95;;;2.50;99.90;;;;;;5047541;28;20029;-50
2022/01/08 04:28:59;;;;;;;32.85;15.82;;;2.50;99.90;;;;;;5046914;28;20033;-51
2022/01/08 04:31:25;;;;;;;40.90;19.50;;;2.50;99.90;;;;;;5048311;28;20082;-50
2022/01/08 04:33:51;;;;;;;35.95;18.65;;;2.60;99.90;;;;;;5046622;28;20052;-51
2022/01/08 04:36:17;;;;;;;35.28;18.05;;;2.60;99.90;;;;;;5048838;28;20040;-50
2022/01/08 04:38:43;;;;;;;37.50;18.67;;;2.60;99.90;;;;;;5048069;28;20021;-51
2022/01/08 04:41:10;;;;;;;32.25;17.42;;;2.60;99.90;;;;;;5047037;28;20474;-52
2022/01/08 04:43:37;;;;;;;35.40;18.38;;;2.60;99.90;;;;;;5047978;28;20020;-51
2022/01/08 04:46:04;;;;;;;38.55;17.33;;;2.60;99.90;;;;;;5047997;28;20057;-53
2022/01/08 04:48:30;;;;;;;36.50;17.58;;;2.60;99.90;;;;;;5046906;28;20041;-53
2022/01/08 04:50:56;;;;;;;40.70;17.85;;;2.60;99.90;;;;;;5047114;28;20560;-50
2022/01/08 04:53:22;;;;;;;33.50;16.65;;;2.60;99.90;;;;;;5048835;28;20029;-47
2022/01/08 04:55:47;;;;;;;33.50;18.02;;;2.50;99.90;;;;;;5051363;28;20028;-49
2022/01/08 04:58:13;;;;;;;34.53;17.10;;;2.60;99.90;;;;;;5052325;28;20060;-51
2022/01/08 05:00:39;;;;;;;31.58;17.15;;;2.60;99.90;;;;;;5050352;28;20074;-54
2022/01/08 05:03:04;;;;;;;32.70;16.60;;;2.60;99.90;;;;;;5048547;28;20037;-53
2022/01/08 05:05:30;;;;;;;30.83;16.30;;;2.60;99.90;;;;;;5050768;28;20028;-52
2022/01/08 05:07:56;;;;;;;36.47;17.58;;;2.60;99.90;;;;;;5051933;28;20483;-50
2022/01/08 05:10:21;;;;;;;36.47;16.58;;;2.60;99.90;;;;;;5049808;28;20051;-53
2022/01/08 05:12:47;;;;;;;31.67;16.73;;;2.60;99.90;;;;;;5051085;28;20364;-50
2022/01/08 05:15:15;;;;;;;35.33;16.63;;;2.70;99.90;;;;;;5049468;28;20032;-51
2022/01/08 05:17:42;;;;;;;30.60;15.77;;;2.60;99.90;;;;;;5050929;28;20449;-48
2022/01/08 05:20:11;;;;;;;31.48;16.15;;;2.60;99.90;;;;;;5048754;28;20421;-49
2022/01/08 05:25:12;;;;;;;29.42;15.40;;;2.60;99.90;;;;;;5051000;28;20025;-48
2022/01/08 05:27:38;;;;;;;35.15;15.80;;;2.60;99.90;;;;;;5050669;28;20441;-51
2022/01/08 05:30:04;;;;;;;31.02;14.20;;;2.60;99.90;;;;;;5051010;28;20025;-49
2022/01/08 05:32:30;;;;;;;35.10;15.35;;;2.60;99.90;;;;;;5050301;28;20087;-49
2022/01/08 05:34:56;;;;;;;30.45;14.68;;;2.60;99.90;;;;;;5050937;28;20041;-48
2022/01/08 05:37:21;;;;;;;31.00;15.55;;;2.70;99.90;;;;;;5051024;28;20108;-51
2022/01/08 05:39:49;;;;;;;34.10;16.85;;;2.60;99.90;;;;;;5050548;28;20504;-49
2022/01/08 05:42:14;;;;;;;30.00;15.93;;;2.70;99.90;;;;;;5051041;28;20483;-48
2022/01/08 05:44:40;;;;;;;35.47;16.27;;;2.70;99.90;;;;;;5050422;28;20036;-51
2022/01/08 05:47:06;;;;;;;30.60;15.68;;;2.70;99.90;;;;;;5051431;28;20037;-55
2022/01/08 05:49:32;;;;;;;29.10;15.45;;;2.70;99.90;;;;;;5049586;28;20025;-53
2022/01/08 05:51:57;;;;;;;33.03;16.13;;;2.70;99.90;;;;;;5049666;28;20040;-53
2022/01/08 05:54:23;;;;;;;33.08;16.95;;;2.70;99.90;;;;;;5049716;28;20033;-53
2022/01/08 05:56:50;;;;;;;36.15;18.25;;;2.70;99.90;;;;;;5049927;28;20057;-52
2022/01/08 05:59:16;;;;;;;42.33;19.90;;;2.70;99.90;;;;;;5050354;28;20036;-53
2022/01/08 06:01:41;;;;;;;46.97;21.42;;;2.70;99.90;;;;;;5050094;28;20033;-50
2022/01/08 06:04:07;;;;;;;49.67;22.23;;;2.70;99.90;;;;;;5050018;28;20029;-54
2022/01/08 06:06:32;;;;;;;41.63;21.92;;;2.70;99.90;;;;;;5047807;28;20581;-52
2022/01/08 06:08:58;;;;;;;48.90;22.73;;;2.70;99.90;;;;;;5051147;28;20098;-50
2022/01/08 06:11:24;;;;;;;52.13;23.00;;;2.70;99.90;;;;;;5050118;28;20067;-49
2022/01/08 06:13:49;;;;;;;41.20;21.38;;;2.70;99.90;;;;;;5049895;28;20047;-49
2022/01/08 06:16:15;;;;;;;47.47;23.05;;;2.80;99.90;;;;;;5047932;28;20116;-49
2022/01/08 06:18:41;;;;;;;48.78;24.27;;;2.70;99.90;;;;;;5050926;28;20025;-51
2022/01/08 06:21:07;;;;;;;43.90;23.80;;;2.70;99.90;;;;;;5047939;28;20099;-48
2022/01/08 06:23:33;;;;;;;44.55;22.77;;;2.80;99.90;;;;;;5049585;28;20056;-48
2022/01/08 06:25:59;;;;;;;50.25;22.88;;;2.80;99.90;;;;;;5049398;28;20025;-48
2022/01/08 06:28:25;;;;;;;47.30;23.45;;;2.80;99.90;;;;;;5050111;28;20017;-50
2022/01/08 06:30:50;;;;;;;45.80;21.95;;;2.70;99.90;;;;;;5049062;28;20040;-51
2022/01/08 06:33:17;;;;;;;45.95;21.83;;;2.70;99.90;;;;;;5040840;28;20021;-49
2022/01/08 06:35:43;;;;;;;46.58;20.73;;;2.70;99.90;;;;;;5039474;28;20025;-52
2022/01/08 06:38:09;;;;;;;43.72;21.13;;;2.70;99.90;;;;;;5043936;28;20440;-50
2022/01/08 06:40:35;;;;;;;41.10;21.23;;;2.70;99.90;;;;;;5048329;28;20040;-51
2022/01/08 06:43:01;;;;;;;45.13;22.00;;;2.70;99.90;;;;;;5047069;28;20029;-50
2022/01/08 06:45:26;;;;;;;38.80;17.98;;;2.70;99.90;;;;;;5050075;28;20036;-51
2022/01/08 06:47:52;;;;;;;44.30;20.67;;;2.60;99.90;;;;;;5047776;28;20490;-53
2022/01/08 06:50:17;;;;;;;39.97;19.42;;;2.60;99.90;;;;;;5049096;28;20104;-51
2022/01/08 06:52:43;;;;;;;39.17;19.48;;;2.60;99.90;;;;;;5048005;28;20486;-48
2022/01/08 06:55:09;;;;;;;46.80;18.48;;;2.60;99.90;;;;;;5049859;28;20115;-52
2022/01/08 06:57:35;;;;;;;40.22;20.52;;;2.60;99.90;;;;;;5048878;28;20057;-54
2022/01/08 07:00:02;;;;;;;43.58;19.05;;;2.60;99.90;;;;;;5049326;28;20096;-49
2022/01/08 07:02:28;;;;;;;36.90;19.33;;;2.60;99.90;;;;;;5048178;28;20017;-50
2022/01/08 07:04:53;;;;;;;41.97;18.45;;;2.60;99.90;;;;;;5049637;28;20518;-48
2022/01/08 07:07:19;;;;;;;38.17;18.42;;;2.60;99.90;;;;;;5049136;28;20033;-47
2022/01/08 07:09:45;;;;;;;34.55;17.15;;;2.60;99.90;;;;;;5049091;28;20033;-48
2022/01/08 07:12:10;;;;;;;35.70;19.00;;;2.60;99.90;;;;;;5047899;28;20037;-47
2022/01/08 07:14:36;;;;;;;35.03;18.42;;;2.60;99.90;;;;;;5048449;28;20037;-49
2022/01/08 07:17:02;;;;;;;40.72;19.38;;;2.60;99.90;;;;;;5048453;28;20033;-50
2022/01/08 07:19:28;;;;;;;40.47;18.83;;;2.70;99.90;;;;;;5048870;28;20100;-50
2022/01/08 07:21:53;;;;;;;34.92;17.45;;;2.70;99.90;;;;;;5047281;28;20438;-49
2022/01/08 07:24:19;;;;;;;41.40;18.95;;;2.60;99.90;;;;;;5049451;28;20055;-50
2022/01/08 07:26:45;;;;;;;45.88;20.88;;;2.70;99.90;;;;;;5048552;28;20399;-49
2022/01/08 07:29:10;;;;;;;37.67;20.45;;;2.70;99.90;;;;;;5049408;28;20037;-53
2022/01/08 07:31:36;;;;;;;46.95;20.50;;;2.70;99.90;;;;;;5046490;28;20040;-50
2022/01/08 07:34:02;;;;;;;43.00;22.25;;;2.70;99.90;;;;;;5049118;28;20041;-49
2022/01/08 07:36:27;;;;;;;48.88;23.77;;;2.70;99.90;;;;;;5047915;28;20029;-48
2022/01/08 07:38:53;;;;;;;43.40;20.70;;;2.70;99.90;;;;;;5043915;28;20039;-52
2022/01/08 07:41:19;;;;;;;47.53;23.58;;;2.80;99.90;;;;;;5048524;28;20040;-49
2022/01/08 07:43:44;;;;;;;44.10;21.67;;;2.70;99.90;;;;;;5048677;28;20114;-49
2022/01/08 07:46:10;;;;;;;49.13;23.67;;;2.80;99.90;;;;;;5048425;28;20086;-50
2022/01/08 07:48:36;;;;;;;48.45;24.15;;;2.70;99.90;;;;;;5048997;28;20033;-51
2022/01/08 07:51:02;;;;;;;49.80;23.58;;;2.70;99.90;;;;;;5047897;28;20055;-49
2022/01/08 07:53:27;;;;;;;54.50;24.88;;;2.80;99.90;;;;;;5048001;28;20060;-50
2022/01/08 07:55:53;;;;;;;51.78;25.25;;;2.70;99.90;;;;;;5048194;28;20064;-51
2022/01/08 07:58:20;;;;;;;52.58;25.30;;;2.80;99.90;;;;;;5048022;28;20502;-50
2022/01/08 08:00:50;;;;;;;51.90;25.20;;;2.70;99.90;;;;;;5048260;28;20079;-50
2022/01/08 08:03:20;;;;;;;57.67;26.52;;;2.80;99.90;;;;;;5046710;28;20033;-53
2022/01/08 08:05:45;;;;;;;54.75;27.08;;;2.80;99.90;;;;;;5049137;28;20056;-49
2022/01/08 08:08:19;;;;;;;50.85;26.23;;;2.80;99.90;;;;;;5048609;28;20069;-51
2022/01/08 08:10:48;;;;;;;50.03;25.88;;;2.80;99.90;;;;;;5048292;28;20041;-51
2022/01/08 08:13:14;;;;;;;54.78;27.23;;;2.90;99.90;;;;;;5047707;28;20033;-51
2022/01/08 08:15:40;;;;;;;54.42;26.38;;;2.90;99.90;;;;;;5047090;28;20112;-49
2022/01/08 08:18:08;;;;;;;54.25;26.70;;;2.80;99.90;;;;;;5047478;28;20502;-51
2022/01/08 08:20:37;;;;;;;57.17;26.90;;;2.80;99.90;;;;;;5048714;28;20370;-51
2022/01/08 08:23:03;;;;;;;49.97;24.80;;;2.90;99.90;;;;;;5048100;28;20025;-48
2022/01/08 08:25:29;;;;;;;49.55;25.38;;;2.90;99.90;;;;;;5048066;28;20059;-48
2022/01/08 08:27:55;;;;;;;55.92;26.25;;;2.90;99.90;;;;;;5049073;28;20033;-50
2022/01/08 08:30:21;;;;;;;54.38;26.35;;;2.90;99.90;;;;;;5050731;28;20073;-49
2022/01/08 08:32:47;;;;;;;53.50;26.38;;;2.80;99.90;;;;;;5052559;28;20033;-49
2022/01/08 08:35:13;;;;;;;61.05;27.50;;;2.80;99.90;;;;;;5051767;28;20042;-49
2022/01/08 08:37:40;;;;;;;60.25;26.27;;;2.90;99.90;;;;;;5050192;28;20032;-51
2022/01/08 08:40:08;;;;;;;60.53;26.25;;;2.90;99.90;;;;;;5050816;28;20028;-53
2022/01/08 08:42:34;;;;;;;51.10;24.90;;;2.90;99.90;;;;;;5051852;28;20029;-57
2022/01/08 08:45:00;;;;;;;58.10;26.33;;;2.80;99.90;;;;;;5051346;28;20025;-52
2022/01/08 08:47:26;;;;;;;56.47;24.83;;;2.90;99.90;;;;;;5043110;28;20033;-53
2022/01/08 08:49:51;;;;;;;54.83;24.42;;;2.90;99.90;;;;;;5051966;28;20473;-55
2022/01/08 08:52:17;;;;;;;47.10;24.10;;;2.90;99.90;;;;;;5051947;28;20105;-48
2022/01/08 08:54:43;;;;;;;54.67;25.10;;;2.90;99.90;;;;;;5052294;28;20532;-49
2022/01/08 08:57:10;;;;;;;51.83;26.33;;;3.00;99.90;;;;;;5050369;28;20106;-51
2022/01/08 08:59:36;;;;;;;55.90;26.33;;;3.00;99.90;;;;;;5051361;28;20017;-48
2022/01/08 09:02:03;;;;;;;51.97;25.13;;;3.00;99.90;;;;;;5051256;28;20058;-50
2022/01/08 09:04:31;;;;;;;51.17;25.65;;;3.00;99.90;;;;;;5052232;28;20032;-52
2022/01/08 09:06:57;;;;;;;50.95;26.35;;;3.10;99.90;;;;;;5049948;28;20029;-49
2022/01/08 09:09:24;;;;;;;50.08;23.30;;;3.10;99.90;;;;;;5051876;28;20427;-50
2022/01/08 09:11:50;;;;;;;47.95;23.15;;;3.10;99.90;;;;;;5050518;28;20039;-48
2022/01/08 09:14:16;;;;;;;46.30;24.25;;;3.10;99.90;;;;;;5051895;28;20032;-51
2022/01/08 09:16:48;;;;;;;47.65;23.02;;;3.00;99.90;;;;;;5049888;28;20037;-53
2022/01/08 09:19:14;;;;;;;57.15;24.00;;;3.10;99.90;;;;;;5051806;28;20025;-54
2022/01/08 09:21:40;;;;;;;44.88;22.55;;;3.00;99.90;;;;;;5050097;28;20024;-51
2022/01/08 09:24:06;;;;;;;50.45;24.23;;;3.10;99.90;;;;;;5051798;28;20032;-53
2022/01/08 09:26:31;;;;;;;48.05;21.30;;;3.10;99.90;;;;;;5049231;28;20052;-52
2022/01/08 09:28:57;;;;;;;53.75;20.98;;;3.10;99.90;;;;;;5050199;28;20124;-52
2022/01/08 09:31:23;;;;;;;44.17;20.98;;;3.10;99.90;;;;;;5050337;28;20029;-51
2022/01/08 09:33:49;;;;;;;45.40;21.73;;;3.00;99.90;;;;;;5050531;28;20051;-55
2022/01/08 09:36:15;;;;;;;44.53;20.67;;;3.00;99.90;;;;;;5050043;28;20036;-52
2022/01/08 09:38:41;;;;;;;46.08;21.35;;;3.10;99.90;;;;;;5051195;28;20475;-52
2022/01/08 09:41:07;;;;;;;50.53;21.10;;;3.00;99.90;;;;;;5050532;28;20036;-51
2022/01/08 09:43:34;;;;;;;46.35;20.77;;;3.10;99.90;;;;;;5050348;28;20105;-50
2022/01/08 09:45:59;;;;;;;39.10;19.20;;;3.10;99.90;;;;;;5045523;28;20479;-53
2022/01/08 09:48:25;;;;;;;42.40;20.67;;;3.10;99.90;;;;;;5048200;28;20049;-50
2022/01/08 09:50:51;;;;;;;38.13;19.58;;;3.20;99.90;;;;;;5050556;28;20394;-52
2022/01/08 09:53:16;;;;;;;47.78;20.40;;;3.30;99.90;;;;;;5046872;28;20478;-51
2022/01/08 09:55:42;;;;;;;38.72;18.67;;;3.30;99.90;;;;;;5048577;28;20487;-51
2022/01/08 09:58:07;;;;;;;42.42;20.55;;;3.20;99.90;;;;;;5051017;28;20021;-52
2022/01/08 10:00:35;;;;;;;46.53;19.83;;;3.20;99.90;;;;;;5049260;28;20064;-51
2022/01/08 10:03:14;;;;;;;39.63;19.15;;;3.20;99.90;;;;;;5049015;28;20032;-50
2022/01/08 10:05:47;;;;;;;42.70;18.85;;;3.30;99.90;;;;;;5046946;28;20032;-49
2022/01/08 10:08:15;;;;;;;33.35;17.52;;;3.20;99.90;;;;;;5049822;28;20029;-53
2022/01/08 10:10:52;;;;;;;40.95;18.23;;;3.30;99.90;;;;;;5049481;28;20491;-49
2022/01/08 10:13:23;;;;;;;38.30;18.23;;;3.30;99.90;;;;;;5050598;28;20045;-50
2022/01/08 10:18:39;;;;;;;40.30;19.27;;;3.40;99.90;;;;;;5030812;28;20090;-51
2022/01/08 10:21:26;;;;;;;37.60;18.15;;;3.40;99.90;;;;;;5045716;28;20021;-51
2022/01/08 10:23:54;;;;;;;37.75;19.58;;;3.40;99.90;;;;;;5050400;28;20032;-48
2022/01/08 10:26:23;;;;;;;38.72;18.67;;;3.50;99.90;;;;;;5049025;28;20033;-49
2022/01/08 10:28:56;;;;;;;34.03;18.05;;;3.50;99.90;;;;;;5049525;28;20039;-51
2022/01/08 10:31:25;;;;;;;32.75;17.52;;;3.60;99.90;;;;;;5047872;28;20331;-51
2022/01/08 10:34:02;;;;;;;33.58;17.00;;;3.60;99.90;;;;;;5049369;28;20471;-53
2022/01/08 10:36:31;;;;;;;43.92;17.90;;;3.70;99.90;;;;;;5030413;28;20140;-50
2022/01/08 10:39:03;;;;;;;31.67;17.50;;;3.70;99.90;;;;;;5046236;28;20029;-51
2022/01/08 10:41:29;;;;;;;52.60;19.65;;;3.70;99.90;;;;;;5035704;28;20108;-51
2022/01/08 10:44:07;;;;;;;32.05;17.38;;;3.70;99.90;;;;;;5049722;28;20049;-54
2022/01/08 10:46:33;;;;;;;36.42;17.30;;;3.70;99.90;;;;;;5037336;28;20024;-56
2022/01/08 10:48:59;;;;;;;35.75;17.50;;;3.80;99.90;;;;;;5050371;28;20036;-57
2022/01/08 10:51:26;;;;;;;38.58;17.40;;;3.80;99.90;;;;;;5045730;28;20414;-50
2022/01/08 10:53:56;;;;;;;31.15;15.93;;;3.80;99.90;;;;;;5048350;28;20045;-49
2022/01/08 10:56:23;;;;;;;35.00;17.52;;;3.90;99.90;;;;;;5048813;28;20085;-48
2022/01/08 10:58:52;;;;;;;31.05;17.23;;;3.90;99.90;;;;;;5050574;28;20399;-52
2022/01/08 11:01:51;;;;;;;31.13;17.08;;;4.00;99.90;;;;;;5049494;28;20478;-56
2022/01/08 11:04:39;;;;;;;32.40;16.63;;;4.00;99.90;;;;;;5058440;28;20041;-52
2022/01/08 11:07:08;;;;;;;32.45;17.17;;;4.10;99.90;;;;;;5059830;28;20037;-55
2022/01/08 11:09:36;;;;;;;34.88;17.13;;;4.10;99.90;;;;;;5071945;28;20107;-60
2022/01/08 11:12:03;;;;;;;31.88;15.82;;;4.30;99.90;;;;;;5049788;28;20049;-57
2022/01/08 11:14:59;;;;;;;30.65;15.73;;;4.30;99.90;;;;;;5050198;28;20053;-53
2022/01/08 11:17:31;;;;;;;32.97;16.02;;;4.30;99.90;;;;;;5049832;28;20033;-53
2022/01/08 11:20:02;;;;;;;;;;;4.30;99.90;;;;;;5052290;28;20046;-57
2022/01/08 11:22:31;;;;;;;34.92;15.23;;;4.40;99.90;;;;;;5035291;28;20108;-55
2022/01/08 11:25:06;;;;;;;37.08;13.73;;;4.40;99.90;;;;;;5044817;28;20021;-55
2022/01/08 11:27:55;;;;;;;33.13;15.02;;;4.40;99.90;;;;;;5045793;28;20114;-55
2022/01/08 11:30:25;;;;;;;28.67;15.00;;;4.40;99.90;;;;;;5053389;28;20019;-57
2022/01/08 11:32:58;;;;;;;32.67;15.00;;;4.40;99.90;;;;;;5062484;28;20120;-55
2022/01/08 11:35:25;;;;;;;25.98;13.63;;;4.50;99.90;;;;;;5049198;28;20029;-57
2022/01/08 11:37:54;;;;;;;31.10;15.07;;;4.60;99.90;;;;;;5049083;28;20024;-54
2022/01/08 11:40:22;;;;;;;30.38;14.10;;;4.70;99.90;;;;;;5048749;28;20033;-52
2022/01/08 11:42:48;;;;;;;31.88;15.02;;;4.70;99.90;;;;;;5049182;28;20474;-57
2022/01/08 11:45:25;;;;;;;30.95;15.10;;;4.80;99.90;;;;;;5047832;28;20033;-53
2022/01/08 11:47:53;;;;;;;34.47;14.25;;;4.80;99.90;;;;;;5049037;28;20108;-53
2022/01/08 11:50:25;;;;;;;27.85;13.75;;;4.90;99.90;;;;;;5047151;28;20032;-53
2022/01/08 11:53:21;;;;;;;29.92;13.13;;;5.10;99.90;;;;;;5049071;28;20029;-53
2022/01/08 11:55:58;;;;;;;25.20;13.35;;;5.20;99.90;;;;;;5049016;28;20120;-53
2022/01/08 11:58:32;;;;;;;25.15;12.85;;;5.50;99.90;;;;;;5049425;28;20364;-53
2022/01/08 12:00:59;;;;;;;32.13;12.80;;;5.70;99.90;;;;;;5045870;28;20040;-56
2022/01/08 12:03:30;;;;;;;23.52;10.88;;;5.90;99.90;;;;;;5048897;28;20022;-56
2022/01/08 12:05:56;;;;;;;24.53;11.57;;;6.10;99.90;;;;;;5046354;28;20025;-53
2022/01/08 12:08:46;;;;;;;18.25;10.50;;;6.30;99.90;;;;;;5047670;28;20036;-53
2022/01/08 12:11:12;;;;;;;24.35;9.65;;;6.30;99.90;;;;;;5042277;28;20490;-52
2022/01/08 12:13:48;;;;;;;21.02;10.80;;;6.20;99.90;;;;;;5052872;28;20033;-56
2022/01/08 12:16:53;;;;;;;25.40;11.18;;;6.20;99.90;;;;;;5052140;28;20398;-53
2022/01/08 12:19:30;;;;;;;25.90;10.73;;;6.10;99.90;;;;;;5012034;28;20037;-58
2022/01/08 12:21:57;;;;;;;28.20;12.15;;;6.00;99.90;;;;;;5052189;28;20452;-52
2022/01/08 12:24:28;;;;;;;26.20;10.90;;;6.00;99.90;;;;;;5052782;28;20020;-54
2022/01/08 12:26:55;;;;;;;25.05;10.48;;;5.90;99.90;;;;;;5052910;28;20033;-56
2022/01/08 12:29:37;;;;;;;24.75;10.52;;;5.90;99.90;;;;;;5052510;28;20388;-54
2022/01/08 12:32:25;;;;;;;29.80;10.65;;;5.90;99.90;;;;;;5050809;28;20052;-55
2022/01/08 12:35:00;;;;;;;28.80;10.30;;;5.80;99.90;;;;;;5049746;28;20455;-53
2022/01/08 12:37:39;;;;;;;30.88;11.63;;;5.80;99.90;;;;;;5048048;28;20451;-55
2022/01/08 12:40:07;;;;;;;24.92;10.25;;;5.70;99.90;;;;;;5048208;28;20021;-51
2022/01/08 12:42:34;;;;;;;24.38;11.75;;;5.70;99.90;;;;;;5045727;28;20032;-54
2022/01/08 12:45:07;;;;;;;23.38;11.85;;;5.50;99.90;;;;;;5048856;28;20033;-56
2022/01/08 12:47:45;;;;;;;29.05;12.70;;;5.50;99.90;;;;;;5051176;28;20033;-51
2022/01/08 12:50:34;;;;;;;29.10;12.63;;;5.40;99.90;;;;;;5052028;28;20129;-52
2022/01/08 12:53:06;;;;;;;28.55;12.52;;;5.40;99.90;;;;;;5052722;28;20183;-55
2022/01/08 12:55:50;;;;;;;32.25;12.82;;;5.40;99.90;;;;;;5052505;28;20041;-50
2022/01/08 12:58:26;;;;;;;24.27;11.75;;;5.40;99.90;;;;;;5051728;28;20040;-52
2022/01/08 13:01:12;;;;;;;29.33;12.90;;;5.50;99.90;;;;;;5042677;28;20029;-54
2022/01/08 13:03:52;;;;;;;34.90;13.13;;;5.30;99.90;;;;;;5050410;28;20105;-57
2022/01/08 13:06:17;;;;;;;32.88;11.93;;;5.30;99.90;;;;;;5050715;28;20040;-54